Time;durP1;ratioP1;P1;durP2;ratioP2;P2;SDS_P1;SDS_P2;PMS_P1;PMS_P2;Temp;Humidity;BMP_temperature;BMP_pressure;BME280_temperature;BME280_humidity;BME280_pressure;Samples;Min_cycle;Max_cycle;Signal;HPM_P1;HPM_P2
2023/04/04 00:00:10;;;;;;;2.30;0.90;;;6.50;95.50;;;;;;5038037;28;20033;-88
2023/04/04 00:02:36;;;;;;;2.53;1.30;;;6.50;95.50;;;;;;5012214;28;20510;-88
2023/04/04 00:05:06;;;;;;;1.90;1.10;;;6.50;95.50;;;;;;5005095;28;20541;-86
2023/04/04 00:07:32;;;;;;;2.22;1.02;;;6.40;95.50;;;;;;5016584;28;20226;-87
2023/04/04 00:09:58;;;;;;;1.80;1.00;;;6.40;95.70;;;;;;5003427;28;20028;-87
2023/04/04 00:12:24;;;;;;;1.23;1.00;;;6.40;95.60;;;;;;5009489;28;20394;-90
2023/04/04 00:14:50;;;;;;;3.20;1.15;;;6.30;95.50;;;;;;5017743;28;20048;-87
2023/04/04 00:17:16;;;;;;;2.35;1.20;;;6.30;95.50;;;;;;5006930;28;20399;-89
2023/04/04 00:19:42;;;;;;;2.03;1.15;;;6.20;95.50;;;;;;5004288;28;20030;-88
2023/04/04 00:22:08;;;;;;;3.17;1.20;;;6.20;95.40;;;;;;5016814;28;20557;-87
2023/04/04 00:24:34;;;;;;;1.58;1.00;;;6.20;95.40;;;;;;4999472;28;20071;-87
2023/04/04 00:27:00;;;;;;;2.30;1.10;;;6.20;95.40;;;;;;4994885;28;20021;-86
2023/04/04 00:29:26;;;;;;;1.73;1.20;;;6.10;95.40;;;;;;4987401;28;20055;-88
2023/04/04 00:31:52;;;;;;;2.67;1.00;;;6.10;95.40;;;;;;5020690;28;20492;-86
2023/04/04 00:34:17;;;;;;;2.47;1.00;;;6.00;95.30;;;;;;5003990;28;20027;-89
2023/04/04 00:36:43;;;;;;;2.03;1.00;;;6.00;95.30;;;;;;5002518;28;20086;-87
2023/04/04 00:39:09;;;;;;;1.70;1.00;;;6.00;95.30;;;;;;5005763;28;20044;-86
2023/04/04 00:41:35;;;;;;;2.47;1.00;;;5.90;95.20;;;;;;5013630;28;20021;-87
2023/04/04 00:44:00;;;;;;;2.97;1.20;;;5.90;95.30;;;;;;4999819;28;20141;-87
2023/04/04 00:46:28;;;;;;;2.30;1.40;;;5.90;95.40;;;;;;5001022;28;20562;-89
2023/04/04 00:48:54;;;;;;;2.90;1.10;;;5.80;95.40;;;;;;5004233;28;20029;-88
2023/04/04 00:51:19;;;;;;;1.88;1.10;;;5.80;95.60;;;;;;5031800;28;20371;-88
2023/04/04 00:53:46;;;;;;;1.50;1.10;;;5.80;95.60;;;;;;5004202;28;20021;-88
2023/04/04 00:56:13;;;;;;;2.63;1.40;;;5.80;95.60;;;;;;4998403;28;20021;-89
2023/04/04 00:58:43;;;;;;;2.40;1.20;;;5.70;95.60;;;;;;4994666;28;20247;-86
2023/04/04 01:01:12;;;;;;;2.13;1.13;;;5.70;95.60;;;;;;5018707;28;20916;-86
2023/04/04 01:03:38;;;;;;;2.08;1.20;;;5.70;95.70;;;;;;5001012;28;20017;-87
2023/04/04 01:06:05;;;;;;;2.43;1.20;;;5.70;96.00;;;;;;5004977;28;20029;-87
2023/04/04 01:08:32;;;;;;;2.95;1.30;;;5.60;96.00;;;;;;5002314;28;20717;-88
2023/04/04 01:10:58;;;;;;;2.35;1.30;;;5.60;95.90;;;;;;4992775;28;20582;-87
2023/04/04 01:13:25;;;;;;;2.30;1.20;;;5.60;95.90;;;;;;5007714;28;20036;-89
2023/04/04 01:15:51;;;;;;;2.80;1.20;;;5.60;96.10;;;;;;5010268;28;20083;-86
2023/04/04 01:18:20;;;;;;;1.90;1.08;;;5.60;96.10;;;;;;5024855;28;20487;-89
2023/04/04 01:21:03;;;;;;;2.05;1.20;;;5.50;96.00;;;;;;5001723;28;20286;-86
2023/04/04 01:23:43;;;;;;;2.45;1.00;;;5.50;95.80;;;;;;5036430;28;20467;-89
2023/04/04 01:26:09;;;;;;;2.03;1.00;;;5.50;95.80;;;;;;5021085;28;20033;-88
2023/04/04 01:28:35;;;;;;;2.17;1.20;;;5.50;96.00;;;;;;5001076;28;20053;-86
2023/04/04 01:31:01;;;;;;;3.23;1.20;;;5.50;95.90;;;;;;5012881;28;20527;-88
2023/04/04 01:33:36;;;;;;;2.10;1.20;;;5.40;95.90;;;;;;5019500;28;20025;-89
2023/04/04 01:36:05;;;;;;;2.92;1.10;;;5.40;95.70;;;;;;5019079;28;20028;-88
2023/04/04 01:39:01;;;;;;;2.22;1.30;;;5.40;95.80;;;;;;5002954;28;20293;-88
2023/04/04 01:41:31;;;;;;;2.13;1.30;;;5.40;95.20;;;;;;5023737;28;20040;-88
2023/04/04 01:43:57;;;;;;;2.63;1.10;;;5.30;95.60;;;;;;4986364;28;20026;-86
2023/04/04 01:46:23;;;;;;;1.77;1.17;;;5.30;95.70;;;;;;5014042;28;20021;-89
2023/04/04 01:48:49;;;;;;;3.53;1.10;;;5.30;95.70;;;;;;5010990;28;20220;-87
2023/04/04 01:51:15;;;;;;;2.23;1.20;;;5.20;95.60;;;;;;5002565;28;20082;-89
2023/04/04 01:53:40;;;;;;;2.05;1.08;;;5.20;95.60;;;;;;5018241;28;20039;-87
2023/04/04 01:56:06;;;;;;;1.83;1.10;;;5.20;95.60;;;;;;5020740;28;20064;-85
2023/04/04 01:58:32;;;;;;;1.95;1.05;;;5.10;95.50;;;;;;5017522;28;20103;-88
2023/04/04 02:00:58;;;;;;;2.30;1.27;;;5.10;95.80;;;;;;5009393;28;20150;-86
2023/04/04 02:03:23;;;;;;;2.47;1.05;;;5.00;95.40;;;;;;4990055;28;20025;-89
2023/04/04 02:05:49;;;;;;;2.73;1.10;;;5.00;95.40;;;;;;5003583;28;20037;-87
2023/04/04 02:08:14;;;;;;;3.53;1.20;;;5.00;95.40;;;;;;5023177;28;20016;-89
2023/04/04 02:10:40;;;;;;;2.07;1.10;;;5.00;95.40;;;;;;5004097;28;20575;-88
2023/04/04 02:13:06;;;;;;;2.50;1.20;;;5.00;95.40;;;;;;5002291;28;20609;-88
2023/04/04 02:15:35;;;;;;;2.20;1.33;;;4.90;95.40;;;;;;5000912;28;20021;-86
2023/04/04 02:18:00;;;;;;;2.72;1.17;;;4.90;95.20;;;;;;5009673;28;20124;-88
2023/04/04 02:20:26;;;;;;;3.33;1.30;;;4.80;95.30;;;;;;5006037;28;20029;-88
2023/04/04 02:22:53;;;;;;;2.33;1.00;;;4.80;95.30;;;;;;5039975;28;20021;-86
2023/04/04 02:25:23;;;;;;;2.60;1.10;;;4.80;95.20;;;;;;5003091;28;20036;-89
2023/04/04 02:27:49;;;;;;;3.20;1.20;;;4.70;95.30;;;;;;5003961;28;20017;-86
2023/04/04 02:30:15;;;;;;;1.95;1.10;;;4.70;95.10;;;;;;4988997;28;20032;-88
2023/04/04 02:32:41;;;;;;;1.98;1.13;;;4.60;95.10;;;;;;5023210;28;20546;-88
2023/04/04 02:35:07;;;;;;;2.25;1.10;;;4.60;95.10;;;;;;5011490;28;20047;-87
2023/04/04 02:37:33;;;;;;;3.00;1.20;;;4.50;95.10;;;;;;5012077;28;20159;-88
2023/04/04 02:39:59;;;;;;;2.08;1.10;;;4.50;95.20;;;;;;5004427;28;20033;-86
2023/04/04 02:42:24;;;;;;;2.50;1.20;;;4.40;95.20;;;;;;5009329;28;20057;-89
2023/04/04 02:44:50;;;;;;;2.75;1.20;;;4.40;95.20;;;;;;4987861;28;20043;-86
2023/04/04 02:47:16;;;;;;;2.90;1.30;;;4.40;95.20;;;;;;5004304;28;20025;-89
2023/04/04 02:49:42;;;;;;;2.47;1.15;;;4.30;95.20;;;;;;4992927;28;20413;-87
2023/04/04 02:52:08;;;;;;;2.33;1.10;;;4.30;95.20;;;;;;5002376;28;20028;-88
2023/04/04 02:54:33;;;;;;;1.80;1.03;;;4.30;95.30;;;;;;5001610;28;20393;-86
2023/04/04 02:56:59;;;;;;;2.67;1.30;;;4.20;95.30;;;;;;5002854;28;20040;-87
2023/04/04 02:59:24;;;;;;;1.60;1.00;;;4.20;95.30;;;;;;4999800;28;20620;-89
2023/04/04 03:01:50;;;;;;;2.30;1.10;;;4.20;95.30;;;;;;5004661;28;20024;-88
2023/04/04 03:04:18;;;;;;;2.92;1.20;;;4.20;95.30;;;;;;5020073;28;20058;-88
2023/04/04 03:06:45;;;;;;;2.15;1.25;;;4.20;95.40;;;;;;5004098;28;20133;-85
2023/04/04 03:09:11;;;;;;;2.40;1.17;;;4.10;95.30;;;;;;5020016;28;20120;-87
2023/04/04 03:11:36;;;;;;;2.75;1.25;;;4.10;95.30;;;;;;5015161;28;20108;-86
2023/04/04 03:14:02;;;;;;;2.10;1.17;;;4.10;95.30;;;;;;5021679;28;20086;-87
2023/04/04 03:16:28;;;;;;;2.35;1.15;;;4.00;95.30;;;;;;4993369;28;20028;-88
2023/04/04 03:18:54;;;;;;;1.97;1.30;;;4.00;95.30;;;;;;5019796;28;20024;-86
2023/04/04 03:21:20;;;;;;;2.90;1.10;;;4.00;95.30;;;;;;5013683;28;20666;-89
2023/04/04 03:23:46;;;;;;;3.08;1.60;;;3.90;95.30;;;;;;5025662;28;20103;-88
2023/04/04 03:26:11;;;;;;;2.63;1.20;;;3.90;95.30;;;;;;5041796;28;20401;-88
2023/04/04 03:28:37;;;;;;;1.55;1.10;;;3.90;95.30;;;;;;5006601;28;20091;-87
2023/04/04 03:31:06;;;;;;;2.63;1.23;;;3.90;95.40;;;;;;4981471;28;20246;-86
2023/04/04 03:33:36;;;;;;;3.38;1.38;;;3.90;95.30;;;;;;5021515;28;20025;-89
2023/04/04 03:36:02;;;;;;;2.30;1.23;;;3.80;95.30;;;;;;4984214;28;20540;-86
2023/04/04 03:38:28;;;;;;;3.40;1.30;;;3.80;95.50;;;;;;5022452;28;20028;-86
2023/04/04 03:41:01;;;;;;;3.83;1.37;;;3.70;95.50;;;;;;5013686;28;20402;-87
2023/04/04 03:43:27;;;;;;;2.38;1.38;;;3.70;95.50;;;;;;4996054;28;20104;-88
2023/04/04 03:45:54;;;;;;;3.93;1.20;;;3.70;95.70;;;;;;5001510;28;20636;-88
2023/04/04 03:48:19;;;;;;;4.25;1.33;;;3.70;95.80;;;;;;4985606;28;20029;-86
2023/04/04 03:50:45;;;;;;;2.05;1.10;;;3.70;95.80;;;;;;5003709;28;20326;-88
2023/04/04 03:53:11;;;;;;;3.17;1.60;;;3.70;95.80;;;;;;5011621;28;20158;-86
2023/04/04 03:55:41;;;;;;;4.20;1.40;;;3.60;95.80;;;;;;5000764;28;20454;-89
2023/04/04 03:58:06;;;;;;;3.35;1.40;;;3.60;95.70;;;;;;5015320;28;20029;-87
2023/04/04 04:00:32;;;;;;;3.10;1.47;;;3.60;95.70;;;;;;5014974;28;20528;-89
2023/04/04 04:02:57;;;;;;;3.58;1.60;;;3.60;95.70;;;;;;4982721;28;20098;-88
2023/04/04 04:05:23;;;;;;;2.63;1.30;;;3.60;95.70;;;;;;5003858;28;20052;-87
2023/04/04 04:07:49;;;;;;;3.33;1.40;;;3.60;95.70;;;;;;4992989;28;20367;-88
2023/04/04 04:10:15;;;;;;;2.92;1.50;;;3.50;95.70;;;;;;5018817;28;20107;-85
2023/04/04 04:12:41;;;;;;;2.35;1.30;;;3.60;95.70;;;;;;5017984;28;20482;-88
2023/04/04 04:15:07;;;;;;;2.63;1.70;;;3.50;95.70;;;;;;5002625;28;20108;-85
2023/04/04 04:17:33;;;;;;;4.20;1.58;;;3.50;95.60;;;;;;4994061;28;20031;-89
2023/04/04 04:19:58;;;;;;;5.80;2.03;;;3.50;95.60;;;;;;5012467;28;20515;-88
2023/04/04 04:22:24;;;;;;;3.80;1.47;;;3.50;95.70;;;;;;5024170;28;20029;-88
2023/04/04 04:24:50;;;;;;;3.03;1.60;;;3.50;95.70;;;;;;5006700;28;20529;-86
2023/04/04 04:27:16;;;;;;;3.05;1.42;;;3.40;95.60;;;;;;5015856;28;20128;-87
2023/04/04 04:29:41;;;;;;;2.85;1.40;;;3.40;95.70;;;;;;5015604;28;20049;-88
2023/04/04 04:32:07;;;;;;;2.70;1.40;;;3.40;95.70;;;;;;5016651;28;20027;-87
2023/04/04 04:34:33;;;;;;;2.67;1.57;;;3.40;95.70;;;;;;5006463;28;20029;-87
2023/04/04 04:36:58;;;;;;;3.08;1.50;;;3.40;95.80;;;;;;5018838;28;20033;-89
2023/04/04 04:39:24;;;;;;;2.63;1.40;;;3.30;95.70;;;;;;5010303;28;20142;-87
2023/04/04 04:41:49;;;;;;;2.65;1.58;;;3.30;95.70;;;;;;5005808;28;20029;-88
2023/04/04 04:44:15;;;;;;;3.30;1.50;;;3.30;95.70;;;;;;5019837;28;20124;-87
2023/04/04 04:46:41;;;;;;;3.23;1.73;;;3.30;95.70;;;;;;5008166;28;20070;-87
2023/04/04 04:49:06;;;;;;;2.85;1.40;;;3.30;95.60;;;;;;4976789;28;20398;-88
2023/04/04 04:51:32;;;;;;;2.60;1.50;;;3.20;95.70;;;;;;5005029;28;20555;-87
2023/04/04 04:53:57;;;;;;;3.08;1.60;;;3.20;95.60;;;;;;5027502;28;20060;-87
2023/04/04 04:56:23;;;;;;;3.93;1.50;;;3.20;95.60;;;;;;5005236;28;20048;-89
2023/04/04 04:58:49;;;;;;;4.75;1.70;;;3.20;95.60;;;;;;5003475;28;20506;-89
2023/04/04 05:01:15;;;;;;;2.67;1.60;;;3.10;95.50;;;;;;5001447;28;20027;-89
2023/04/04 05:03:41;;;;;;;4.20;1.77;;;3.10;95.50;;;;;;4970294;28;20688;-88
2023/04/04 05:06:06;;;;;;;3.13;1.60;;;3.10;95.60;;;;;;5001621;28;20465;-88
2023/04/04 05:08:32;;;;;;;2.47;1.52;;;3.00;95.60;;;;;;4990073;28;20106;-87
2023/04/04 05:10:58;;;;;;;3.50;1.87;;;3.00;95.60;;;;;;4987235;28;20037;-89
2023/04/04 05:13:24;;;;;;;3.50;1.80;;;3.00;95.60;;;;;;5026019;28;20473;-88
2023/04/04 05:15:49;;;;;;;3.20;1.60;;;3.00;95.60;;;;;;5021729;28;20070;-89
2023/04/04 05:18:15;;;;;;;2.88;1.58;;;3.00;95.70;;;;;;5018632;28;20074;-87
2023/04/04 05:20:41;;;;;;;4.70;2.03;;;2.90;95.70;;;;;;5005253;28;20782;-86
2023/04/04 05:23:07;;;;;;;3.53;1.60;;;3.00;95.70;;;;;;5015509;28;20129;-89
2023/04/04 05:25:33;;;;;;;3.60;1.63;;;2.90;95.80;;;;;;5023138;28;20082;-88
2023/04/04 05:27:58;;;;;;;4.33;1.83;;;2.90;95.80;;;;;;4995389;28;20128;-89
2023/04/04 05:30:24;;;;;;;6.53;1.67;;;2.90;95.80;;;;;;5020901;28;20104;-87
2023/04/04 05:32:51;;;;;;;3.78;1.90;;;2.90;95.90;;;;;;5019567;28;20513;-88
2023/04/04 05:35:17;;;;;;;2.65;1.65;;;2.90;95.90;;;;;;4997718;28;20524;-86
2023/04/04 05:37:43;;;;;;;4.88;2.00;;;2.90;96.00;;;;;;5004610;28;20320;-86
2023/04/04 05:40:09;;;;;;;4.43;2.00;;;2.90;96.10;;;;;;4992526;28;20040;-88
2023/04/04 05:42:35;;;;;;;4.07;1.90;;;2.90;96.30;;;;;;4998969;28;20024;-88
2023/04/04 05:45:01;;;;;;;3.90;1.70;;;2.90;96.30;;;;;;5007043;28;20089;-89
2023/04/04 05:47:26;;;;;;;3.38;1.90;;;2.90;96.40;;;;;;5021438;28;20162;-88
2023/04/04 05:49:52;;;;;;;4.73;2.20;;;2.90;96.50;;;;;;5024727;28;20314;-86
2023/04/04 05:52:17;;;;;;;3.90;2.00;;;2.90;96.60;;;;;;4984351;28;20637;-87
2023/04/04 05:54:43;;;;;;;3.28;2.00;;;3.00;96.70;;;;;;4996221;28;20029;-88
2023/04/04 05:57:09;;;;;;;4.03;2.13;;;3.00;96.80;;;;;;4994333;28;20112;-88
2023/04/04 05:59:35;;;;;;;4.13;1.92;;;3.00;96.80;;;;;;5005101;28;20012;-87
2023/04/04 06:02:01;;;;;;;4.25;2.00;;;3.00;96.90;;;;;;5034293;28;20120;-88
2023/04/04 06:04:27;;;;;;;4.10;2.03;;;3.00;97.00;;;;;;5000211;28;20089;-87
2023/04/04 06:06:52;;;;;;;3.57;2.20;;;3.10;97.20;;;;;;4987443;28;20295;-87
2023/04/04 06:09:18;;;;;;;3.80;2.23;;;3.10;97.30;;;;;;5005500;28;20021;-88
2023/04/04 06:11:44;;;;;;;3.72;2.05;;;3.10;97.40;;;;;;5001490;28;20112;-87
2023/04/04 06:14:09;;;;;;;3.87;2.00;;;3.20;97.50;;;;;;5010245;28;20033;-88
2023/04/04 06:16:35;;;;;;;6.35;2.33;;;3.20;97.70;;;;;;5006234;28;20248;-87
2023/04/04 06:19:01;;;;;;;4.85;2.40;;;3.20;98.00;;;;;;5003889;28;20091;-88
2023/04/04 06:21:27;;;;;;;3.80;2.30;;;3.30;98.30;;;;;;4991839;28;20039;-89
2023/04/04 06:23:53;;;;;;;3.63;2.28;;;3.40;98.70;;;;;;5014064;28;20250;-87
2023/04/04 06:26:19;;;;;;;3.70;2.40;;;3.50;99.20;;;;;;5008031;28;20467;-87
2023/04/04 06:28:49;;;;;;;4.60;2.40;;;3.60;99.60;;;;;;4988618;28;20053;-87
2023/04/04 06:31:15;;;;;;;3.83;2.42;;;3.70;99.70;;;;;;5008068;28;20115;-86
2023/04/04 06:33:41;;;;;;;3.80;2.00;;;3.90;99.90;;;;;;5009804;28;20354;-86
2023/04/04 06:36:07;;;;;;;4.53;2.43;;;3.90;99.90;;;;;;4986322;28;20028;-87
2023/04/04 06:38:33;;;;;;;4.82;2.60;;;4.10;99.90;;;;;;4987509;28;20021;-87
2023/04/04 06:40:58;;;;;;;6.43;2.80;;;4.30;99.90;;;;;;4990865;28;20021;-88
2023/04/04 06:43:24;;;;;;;3.72;2.25;;;4.40;99.90;;;;;;4970962;28;20076;-89
2023/04/04 06:45:50;;;;;;;4.87;2.33;;;4.60;99.90;;;;;;5013440;28;20615;-88
2023/04/04 06:48:16;;;;;;;3.05;2.30;;;4.90;99.90;;;;;;5013673;28;20036;-86
2023/04/04 06:50:41;;;;;;;3.90;2.70;;;5.10;99.90;;;;;;5005628;28;20439;-87
2023/04/04 06:53:07;;;;;;;4.03;2.45;;;5.50;99.90;;;;;;4975192;28;20103;-87
2023/04/04 06:55:34;;;;;;;4.27;2.40;;;5.80;99.90;;;;;;4986713;28;20055;-88
2023/04/04 06:58:00;;;;;;;3.07;2.40;;;6.20;99.90;;;;;;4998215;28;20302;-89
2023/04/04 07:00:25;;;;;;;4.85;2.50;;;6.60;99.90;;;;;;4982966;28;20029;-88
2023/04/04 07:02:58;;;;;;;3.70;2.47;;;7.00;99.90;;;;;;4994767;28;20184;-87
2023/04/04 07:05:24;;;;;;;3.33;2.17;;;7.40;99.90;;;;;;5009802;28;20402;-88
2023/04/04 07:07:55;;;;;;;3.10;2.42;;;7.70;99.90;;;;;;5012339;28;20224;-87
2023/04/04 07:10:22;;;;;;;3.15;2.20;;;8.10;99.90;;;;;;4967928;28;20849;-88
2023/04/04 07:12:48;;;;;;;3.00;2.00;;;8.40;99.90;;;;;;5007160;28;20510;-88
2023/04/04 07:15:13;;;;;;;2.60;2.10;;;8.70;99.90;;;;;;4988562;28;20040;-86
2023/04/04 07:17:40;;;;;;;3.90;2.30;;;9.00;99.90;;;;;;5011028;28;20025;-87
2023/04/04 07:20:06;;;;;;;3.45;2.20;;;9.40;99.90;;;;;;5018196;28;20017;-89
2023/04/04 07:22:35;;;;;;;3.13;1.98;;;9.70;99.90;;;;;;4987615;28;20121;-89
2023/04/04 07:25:01;;;;;;;4.80;2.30;;;10.10;99.90;;;;;;4977904;28;20032;-88
2023/04/04 07:27:26;;;;;;;3.25;2.10;;;10.50;99.90;;;;;;4996712;28;20033;-87
2023/04/04 07:29:53;;;;;;;2.83;2.33;;;10.90;99.90;;;;;;4997685;28;20318;-87
2023/04/04 07:32:18;;;;;;;3.38;2.40;;;11.30;99.90;;;;;;5006204;28;20291;-87
2023/04/04 07:34:46;;;;;;;4.30;2.37;;;11.70;99.90;;;;;;5019951;28;20678;-87
2023/04/04 07:37:11;;;;;;;4.32;2.40;;;12.00;99.90;;;;;;4998912;28;20116;-89
2023/04/04 07:39:37;;;;;;;2.88;2.08;;;12.30;99.90;;;;;;4974147;28;20922;-88
2023/04/04 07:42:03;;;;;;;3.00;2.07;;;12.60;99.90;;;;;;4997211;28;20052;-88
2023/04/04 07:44:28;;;;;;;3.30;2.22;;;12.90;99.90;;;;;;5008710;28;20080;-87
2023/04/04 07:46:54;;;;;;;5.03;2.40;;;13.20;99.90;;;;;;5000053;28;20746;-88
2023/04/04 07:49:20;;;;;;;2.85;1.77;;;13.50;99.90;;;;;;5007899;28;20021;-89
2023/04/04 07:51:46;;;;;;;3.33;2.00;;;13.70;99.90;;;;;;4988012;28;20110;-87
2023/04/04 07:54:11;;;;;;;3.70;2.25;;;14.00;99.90;;;;;;5021162;28;20029;-89
2023/04/04 07:56:37;;;;;;;3.80;2.30;;;14.30;99.90;;;;;;4969079;28;20630;-87
2023/04/04 07:59:02;;;;;;;3.63;1.90;;;14.50;99.90;;;;;;5010967;28;20462;-85
2023/04/04 08:01:29;;;;;;;2.50;1.70;;;14.80;99.90;;;;;;4991210;28;20033;-89
2023/04/04 08:03:55;;;;;;;3.28;1.92;;;15.00;99.90;;;;;;4988804;28;20195;-87
2023/04/04 08:06:21;;;;;;;2.60;1.85;;;15.30;99.90;;;;;;4999540;28;20022;-88
2023/04/04 08:08:47;;;;;;;3.87;1.80;;;15.50;99.90;;;;;;5016286;28;20102;-89
2023/04/04 08:11:13;;;;;;;4.05;1.80;;;15.80;99.90;;;;;;4997387;28;21495;-88
2023/04/04 08:13:38;;;;;;;3.73;1.80;;;16.00;99.90;;;;;;4976067;28;20044;-86
2023/04/04 08:16:05;;;;;;;2.70;1.67;;;16.10;99.90;;;;;;4995990;28;20024;-89
2023/04/04 08:18:31;;;;;;;2.20;1.60;;;16.30;99.90;;;;;;4995638;28;20418;-89
2023/04/04 08:20:57;;;;;;;2.28;1.63;;;16.50;99.90;;;;;;4999142;28;20112;-88
2023/04/04 08:23:22;;;;;;;2.60;1.63;;;16.70;99.90;;;;;;5002270;28;20132;-89
2023/04/04 08:25:48;;;;;;;2.88;1.70;;;16.90;99.90;;;;;;5013575;28;20753;-89
2023/04/04 08:28:14;;;;;;;2.93;1.50;;;17.10;99.90;;;;;;4977512;28;20037;-87
2023/04/04 08:30:40;;;;;;;2.97;1.50;;;17.20;99.90;;;;;;5009211;28;20499;-87
2023/04/04 08:33:06;;;;;;;2.95;1.80;;;17.40;99.90;;;;;;5016598;28;20025;-87
2023/04/04 08:35:32;;;;;;;3.00;1.60;;;17.60;99.90;;;;;;4993701;28;20048;-87
2023/04/04 08:37:57;;;;;;;2.75;1.60;;;17.70;99.90;;;;;;5011994;28;20562;-90
2023/04/04 08:40:23;;;;;;;2.20;1.40;;;17.90;99.90;;;;;;5011058;28;20273;-88
2023/04/04 08:42:50;;;;;;;1.95;1.40;;;18.00;99.90;;;;;;4995922;28;20242;-90
2023/04/04 08:45:21;;;;;;;2.15;1.48;;;18.20;99.90;;;;;;4967750;28;20586;-88
2023/04/04 08:47:49;;;;;;;2.63;1.60;;;18.30;99.90;;;;;;5001002;28;20056;-88
2023/04/04 08:50:16;;;;;;;2.90;1.50;;;18.40;99.90;;;;;;5003903;28;20072;-90
2023/04/04 08:52:43;;;;;;;2.08;1.58;;;18.50;99.90;;;;;;5011926;28;20289;-88
2023/04/04 08:55:10;;;;;;;2.92;1.83;;;18.60;99.90;;;;;;5013578;28;20395;-87
2023/04/04 08:57:36;;;;;;;2.10;1.60;;;18.70;99.90;;;;;;5011621;28;20101;-89
2023/04/04 09:00:05;;;;;;;2.73;1.70;;;18.80;99.90;;;;;;4972949;28;20076;-86
2023/04/04 09:02:53;;;;;;;3.80;1.73;;;18.90;99.90;;;;;;4982741;28;20492;-86
2023/04/04 09:05:20;;;;;;;2.47;1.50;;;19.00;97.30;;;;;;5000810;28;20145;-89
2023/04/04 09:07:46;;;;;;;3.08;1.40;;;19.10;99.90;;;;;;5001282;28;20483;-88
2023/04/04 09:10:12;;;;;;;2.20;1.27;;;19.20;99.90;;;;;;5009725;28;20026;-87
2023/04/04 09:12:43;;;;;;;2.40;1.30;;;19.30;99.90;;;;;;5002930;28;20643;-87
2023/04/04 09:15:09;;;;;;;1.90;1.35;;;19.40;99.30;;;;;;4996729;28;20483;-89
2023/04/04 09:17:36;;;;;;;2.65;1.60;;;19.60;99.90;;;;;;4981054;28;20632;-87
2023/04/04 09:20:06;;;;;;;2.05;1.60;;;19.80;99.90;;;;;;4993113;28;20060;-88
2023/04/04 09:22:32;;;;;;;3.50;1.63;;;19.80;99.50;;;;;;4981581;28;20131;-88
2023/04/04 09:24:57;;;;;;;2.40;1.60;;;19.90;99.30;;;;;;4999500;28;20023;-88
2023/04/04 09:27:23;;;;;;;2.67;1.40;;;19.90;99.50;;;;;;4987198;28;20029;-87
2023/04/04 09:29:48;;;;;;;2.47;1.73;;;20.00;99.80;;;;;;4995537;28;20064;-87
2023/04/04 09:32:15;;;;;;;4.37;1.60;;;20.00;98.90;;;;;;5005838;28;20025;-87
2023/04/04 09:34:42;;;;;;;2.58;1.60;;;20.00;99.00;;;;;;5000718;28;20033;-88
2023/04/04 09:37:09;;;;;;;2.60;1.90;;;20.00;99.50;;;;;;5000533;28;20798;-88
2023/04/04 09:39:38;;;;;;;2.80;1.60;;;20.10;99.10;;;;;;4999669;28;20020;-88
2023/04/04 09:42:05;;;;;;;2.10;1.38;;;20.20;98.10;;;;;;4993232;28;20252;-87
2023/04/04 09:44:33;;;;;;;2.20;1.65;;;20.30;99.90;;;;;;5015664;28;20022;-89
2023/04/04 09:47:27;;;;;;;3.00;1.60;;;20.40;99.90;;;;;;4982358;28;20021;-88
2023/04/04 09:49:59;;;;;;;3.28;1.50;;;20.60;97.90;;;;;;4997843;28;20268;-89
2023/04/04 09:52:25;;;;;;;2.40;1.57;;;20.80;99.80;;;;;;4984239;28;20029;-87
2023/04/04 09:54:55;;;;;;;2.15;1.40;;;21.00;99.90;;;;;;5000546;28;20068;-89
2023/04/04 09:57:21;;;;;;;2.67;1.70;;;21.20;98.10;;;;;;4992103;28;20028;-88
2023/04/04 09:59:47;;;;;;;2.30;1.60;;;21.40;99.80;;;;;;5016233;28;20528;-90
2023/04/04 10:02:12;;;;;;;2.03;1.40;;;21.50;99.30;;;;;;4986028;28;21013;-89
2023/04/04 10:04:38;;;;;;;2.95;1.70;;;21.60;98.90;;;;;;5015191;28;20717;-87
2023/04/04 10:07:04;;;;;;;2.67;1.50;;;21.70;98.70;;;;;;5007985;28;20060;-87
2023/04/04 10:09:30;;;;;;;2.35;1.58;;;21.70;98.00;;;;;;5003942;28;20079;-87
2023/04/04 10:12:12;;;;;;;2.57;1.70;;;21.70;98.30;;;;;;4996235;28;20935;-89
2023/04/04 10:14:37;;;;;;;3.42;1.65;;;21.80;94.00;;;;;;5005596;28;20583;-89
2023/04/04 10:17:09;;;;;;;3.15;1.42;;;22.00;99.10;;;;;;4969903;28;20310;-88
2023/04/04 10:19:39;;;;;;;3.03;1.60;;;22.20;96.20;;;;;;4979798;28;20119;-91
2023/04/04 10:22:05;;;;;;;2.03;1.40;;;22.40;96.80;;;;;;4996707;28;20029;-88
2023/04/04 10:24:31;;;;;;;1.75;1.40;;;22.50;98.30;;;;;;5005073;28;20028;-88
2023/04/04 10:26:57;;;;;;;2.60;1.30;;;22.60;98.10;;;;;;5010826;28;20524;-89
2023/04/04 10:29:24;;;;;;;3.73;1.70;;;22.70;97.70;;;;;;5018295;28;20060;-89
2023/04/04 10:31:59;;;;;;;2.20;1.50;;;22.80;96.80;;;;;;4991766;28;20038;-88
2023/04/04 10:34:37;;;;;;;2.45;1.60;;;22.80;95.80;;;;;;4988526;28;20116;-88
2023/04/04 10:37:16;;;;;;;2.15;1.25;;;22.80;95.20;;;;;;5006306;28;20227;-87
2023/04/04 10:40:03;;;;;;;3.13;1.67;;;22.90;95.20;;;;;;5007323;28;20025;-88
2023/04/04 10:42:34;;;;;;;2.27;1.57;;;23.00;96.20;;;;;;5000659;28;20026;-90
2023/04/04 10:45:01;;;;;;;2.25;1.58;;;23.10;96.00;;;;;;4994532;28;20345;-90
2023/04/04 10:47:28;;;;;;;2.47;1.60;;;23.30;97.70;;;;;;4998856;28;20021;-89
2023/04/04 10:49:55;;;;;;;3.20;1.50;;;23.30;96.50;;;;;;4992494;28;20022;-90
2023/04/04 10:52:26;;;;;;;3.45;1.70;;;23.50;95.90;;;;;;5012898;28;20040;-89
2023/04/04 10:54:56;;;;;;;2.67;1.50;;;23.50;95.60;;;;;;4976531;28;20021;-89
2023/04/04 10:57:22;;;;;;;2.17;1.25;;;23.60;95.70;;;;;;4986116;28;20017;-88
2023/04/04 11:00:06;;;;;;;2.50;1.50;;;23.60;96.00;;;;;;5009316;28;20360;-91
2023/04/04 11:03:00;;;;;;;2.78;1.30;;;23.60;90.60;;;;;;4989334;28;20123;-90
2023/04/04 11:05:42;;;;;;;2.53;1.20;;;23.60;92.00;;;;;;4989501;28;20022;-89
2023/04/04 11:08:12;;;;;;;1.90;1.30;;;23.60;85.40;;;;;;4993592;28;20288;-89
2023/04/04 11:10:42;;;;;;;1.88;1.17;;;23.60;94.00;;;;;;4986987;28;20033;-91
2023/04/04 11:13:14;;;;;;;2.42;1.60;;;23.60;94.30;;;;;;5003849;28;20029;-90
2023/04/04 11:15:59;;;;;;;2.45;1.48;;;23.60;92.50;;;;;;5015743;28;20698;-88
2023/04/04 11:18:31;;;;;;;2.15;1.58;;;23.60;93.30;;;;;;4999346;28;20455;-88
2023/04/04 11:21:01;;;;;;;2.27;1.30;;;23.60;92.50;;;;;;4989869;28;20569;-89
2023/04/04 11:23:37;;;;;;;3.17;1.70;;;23.60;94.80;;;;;;5014573;28;20060;-88
2023/04/04 11:26:07;;;;;;;2.17;1.27;;;23.60;95.30;;;;;;5002835;28;20913;-89
2023/04/04 11:28:32;;;;;;;2.20;1.40;;;23.70;94.10;;;;;;5002956;28;20207;-90
2023/04/04 11:31:17;;;;;;;2.37;1.50;;;23.70;94.90;;;;;;5011180;28;20558;-89
2023/04/04 11:34:08;;;;;;;3.72;2.00;;;23.80;92.20;;;;;;5015415;28;20037;-89
2023/04/04 11:36:34;;;;;;;2.17;1.52;;;23.80;92.10;;;;;;4968933;28;20083;-87
2023/04/04 11:39:04;;;;;;;2.20;1.50;;;23.80;94.30;;;;;;5020427;28;20815;-89
2023/04/04 11:41:51;;;;;;;2.35;1.40;;;23.70;92.60;;;;;;4985833;28;20029;-92
2023/04/04 11:44:19;;;;;;;2.65;1.60;;;23.70;88.60;;;;;;4997193;28;20033;-86
2023/04/04 11:46:46;;;;;;;3.08;1.63;;;23.70;94.00;;;;;;5002228;28;20426;-90
2023/04/04 11:49:13;;;;;;;2.67;1.90;;;23.80;94.60;;;;;;5014566;28;20021;-90
2023/04/04 11:51:40;;;;;;;1.93;1.70;;;23.80;91.70;;;;;;4983560;28;20595;-89
2023/04/04 11:54:14;;;;;;;2.55;1.70;;;23.80;92.70;;;;;;4998210;28;20121;-92
2023/04/04 11:56:43;;;;;;;2.15;1.58;;;23.90;90.30;;;;;;4996489;28;20053;-89
2023/04/04 11:59:10;;;;;;;2.15;1.73;;;23.90;93.50;;;;;;4988789;28;20433;-91
2023/04/04 12:01:37;;;;;;;2.13;1.60;;;24.10;93.20;;;;;;5014213;28;20037;-87
2023/04/04 12:04:04;;;;;;;2.03;1.60;;;24.20;94.90;;;;;;5000565;28;20125;-90
2023/04/04 12:06:34;;;;;;;2.78;1.90;;;24.30;94.50;;;;;;4994650;28;20786;-89
2023/04/04 12:09:04;;;;;;;2.70;1.70;;;24.30;93.30;;;;;;4994381;28;20033;-92
2023/04/04 12:11:33;;;;;;;2.67;1.80;;;24.30;92.60;;;;;;4996093;28;20099;-89
2023/04/04 12:13:59;;;;;;;2.53;1.63;;;24.30;91.80;;;;;;4987691;28;20054;-90
2023/04/04 12:16:27;;;;;;;2.83;1.83;;;24.30;93.30;;;;;;5012368;28;20025;-90
2023/04/04 12:18:52;;;;;;;2.63;1.63;;;24.30;92.80;;;;;;5001858;28;20112;-91
2023/04/04 12:21:19;;;;;;;2.83;1.88;;;24.30;94.10;;;;;;5000280;28;20619;-90
2023/04/04 12:23:47;;;;;;;3.67;1.90;;;24.40;93.40;;;;;;4979207;28;20064;-92
2023/04/04 12:26:15;;;;;;;2.40;1.87;;;24.60;92.00;;;;;;5020073;28;20033;-91
2023/04/04 12:28:42;;;;;;;2.78;1.70;;;24.60;92.70;;;;;;4994457;28;20045;-89
2023/04/04 12:31:08;;;;;;;2.53;1.80;;;24.70;93.70;;;;;;4988940;28;20034;-91
2023/04/04 12:33:35;;;;;;;3.33;1.80;;;24.90;92.80;;;;;;4997913;28;20123;-92
2023/04/04 12:36:05;;;;;;;2.50;1.65;;;25.00;92.30;;;;;;4999589;28;20035;-91
2023/04/04 12:38:33;;;;;;;2.30;1.60;;;25.10;90.30;;;;;;4975879;28;20125;-88
2023/04/04 12:40:59;;;;;;;2.20;1.67;;;25.20;91.60;;;;;;4996467;28;20091;-91
2023/04/04 12:43:28;;;;;;;2.70;1.80;;;25.20;92.30;;;;;;4998246;28;20499;-86
2023/04/04 12:45:57;;;;;;;3.20;1.80;;;25.30;92.40;;;;;;4988017;28;20026;-90
2023/04/04 12:48:27;;;;;;;3.03;1.80;;;25.30;90.00;;;;;;5012456;28;20105;-89
2023/04/04 12:50:57;;;;;;;2.97;1.80;;;25.10;90.00;;;;;;5017938;28;20603;-87
2023/04/04 12:53:26;;;;;;;2.72;1.70;;;25.10;90.50;;;;;;5004693;28;20108;-87